sensor_id;sensor_type;location;lat;lon;timestamp;temperature;humidity
69895;DHT22;57172;52.034;5.090;2023-08-24T00:01:57;19.40;67.70
69895;DHT22;57172;52.034;5.090;2023-08-24T00:04:24;19.40;67.70
69895;DHT22;57172;52.034;5.090;2023-08-24T00:06:51;19.40;67.70
69895;DHT22;57172;52.034;5.090;2023-08-24T00:09:18;19.40;67.70
69895;DHT22;57172;52.034;5.090;2023-08-24T00:11:45;19.40;67.70
69895;DHT22;57172;52.034;5.090;2023-08-24T00:14:13;19.40;67.80
69895;DHT22;57172;52.034;5.090;2023-08-24T00:16:40;19.40;67.90
69895;DHT22;57172;52.034;5.090;2023-08-24T00:19:07;19.30;68.10
69895;DHT22;57172;52.034;5.090;2023-08-24T00:21:34;19.30;68.20
69895;DHT22;57172;52.034;5.090;2023-08-24T00:24:01;19.30;68.30
69895;DHT22;57172;52.034;5.090;2023-08-24T00:26:28;19.20;68.50
69895;DHT22;57172;52.034;5.090;2023-08-24T00:28:55;19.20;68.60
69895;DHT22;57172;52.034;5.090;2023-08-24T00:31:22;19.20;68.70
69895;DHT22;57172;52.034;5.090;2023-08-24T00:33:49;19.20;68.80
69895;DHT22;57172;52.034;5.090;2023-08-24T00:36:19;19.30;68.80
69895;DHT22;57172;52.034;5.090;2023-08-24T00:38:47;19.30;68.80
69895;DHT22;57172;52.034;5.090;2023-08-24T00:41:17;19.30;68.90
69895;DHT22;57172;52.034;5.090;2023-08-24T00:43:45;19.40;68.90
69895;DHT22;57172;52.034;5.090;2023-08-24T00:46:12;19.40;68.90
69895;DHT22;57172;52.034;5.090;2023-08-24T00:48:39;19.40;69.00
69895;DHT22;57172;52.034;5.090;2023-08-24T00:51:06;19.40;69.00
69895;DHT22;57172;52.034;5.090;2023-08-24T00:53:33;19.40;68.90
69895;DHT22;57172;52.034;5.090;2023-08-24T00:56:00;19.40;68.90
69895;DHT22;57172;52.034;5.090;2023-08-24T00:58:28;19.40;68.80
69895;DHT22;57172;52.034;5.090;2023-08-24T01:00:56;19.40;68.70
69895;DHT22;57172;52.034;5.090;2023-08-24T01:03:24;19.40;68.80
69895;DHT22;57172;52.034;5.090;2023-08-24T01:05:52;19.30;68.80
69895;DHT22;57172;52.034;5.090;2023-08-24T01:08:20;19.30;68.90
69895;DHT22;57172;52.034;5.090;2023-08-24T01:16:34;19.30;69.00
69895;DHT22;57172;52.034;5.090;2023-08-24T01:19:05;19.30;69.00
69895;DHT22;57172;52.034;5.090;2023-08-24T01:21:33;19.30;69.10
69895;DHT22;57172;52.034;5.090;2023-08-24T01:24:14;19.30;69.20
69895;DHT22;57172;52.034;5.090;2023-08-24T01:26:43;19.20;69.30
69895;DHT22;57172;52.034;5.090;2023-08-24T01:29:11;19.20;69.50
69895;DHT22;57172;52.034;5.090;2023-08-24T01:31:38;19.20;69.60
69895;DHT22;57172;52.034;5.090;2023-08-24T01:34:05;19.20;69.80
69895;DHT22;57172;52.034;5.090;2023-08-24T01:36:31;19.20;69.80
69895;DHT22;57172;52.034;5.090;2023-08-24T01:39:07;19.30;69.80
69895;DHT22;57172;52.034;5.090;2023-08-24T01:41:38;19.30;69.90
69895;DHT22;57172;52.034;5.090;2023-08-24T01:44:13;19.30;69.80
69895;DHT22;57172;52.034;5.090;2023-08-24T01:46:42;19.30;69.90
69895;DHT22;57172;52.034;5.090;2023-08-24T01:49:12;19.30;69.90
69895;DHT22;57172;52.034;5.090;2023-08-24T01:51:41;19.30;70.00
69895;DHT22;57172;52.034;5.090;2023-08-24T01:54:09;19.30;70.10
69895;DHT22;57172;52.034;5.090;2023-08-24T01:56:36;19.30;70.10
69895;DHT22;57172;52.034;5.090;2023-08-24T01:59:03;19.20;70.20
69895;DHT22;57172;52.034;5.090;2023-08-24T02:01:30;19.30;70.30
69895;DHT22;57172;52.034;5.090;2023-08-24T02:03:57;19.30;70.30
69895;DHT22;57172;52.034;5.090;2023-08-24T02:06:26;19.30;70.40
69895;DHT22;57172;52.034;5.090;2023-08-24T02:08:54;19.30;70.50
69895;DHT22;57172;52.034;5.090;2023-08-24T02:11:21;19.30;70.50
69895;DHT22;57172;52.034;5.090;2023-08-24T02:13:48;19.40;70.60
69895;DHT22;57172;52.034;5.090;2023-08-24T02:16:15;19.40;70.60
69895;DHT22;57172;52.034;5.090;2023-08-24T02:18:42;19.40;70.50
69895;DHT22;57172;52.034;5.090;2023-08-24T02:21:09;19.50;70.60
69895;DHT22;57172;52.034;5.090;2023-08-24T02:23:39;19.50;70.80
69895;DHT22;57172;52.034;5.090;2023-08-24T02:26:07;19.50;70.80
69895;DHT22;57172;52.034;5.090;2023-08-24T02:28:36;19.50;71.00
69895;DHT22;57172;52.034;5.090;2023-08-24T02:31:04;19.50;71.20
69895;DHT22;57172;52.034;5.090;2023-08-24T02:33:31;19.40;71.30
69895;DHT22;57172;52.034;5.090;2023-08-24T02:35:58;19.40;71.40
69895;DHT22;57172;52.034;5.090;2023-08-24T02:38:26;19.30;71.50
69895;DHT22;57172;52.034;5.090;2023-08-24T02:41:06;19.30;71.70
69895;DHT22;57172;52.034;5.090;2023-08-24T02:43:34;19.20;71.80
69895;DHT22;57172;52.034;5.090;2023-08-24T02:46:02;19.10;71.90
69895;DHT22;57172;52.034;5.090;2023-08-24T02:48:31;19.10;71.90
69895;DHT22;57172;52.034;5.090;2023-08-24T02:50:59;19.10;72.00
69895;DHT22;57172;52.034;5.090;2023-08-24T02:53:26;19.00;72.10
69895;DHT22;57172;52.034;5.090;2023-08-24T02:55:54;19.00;72.20
69895;DHT22;57172;52.034;5.090;2023-08-24T02:58:21;18.90;72.30
69895;DHT22;57172;52.034;5.090;2023-08-24T03:00:49;18.80;72.40
69895;DHT22;57172;52.034;5.090;2023-08-24T03:03:16;18.80;72.50
69895;DHT22;57172;52.034;5.090;2023-08-24T03:06:02;18.80;72.60
69895;DHT22;57172;52.034;5.090;2023-08-24T03:08:30;18.80;72.90
69895;DHT22;57172;52.034;5.090;2023-08-24T03:10:59;18.70;72.90
69895;DHT22;57172;52.034;5.090;2023-08-24T03:13:27;18.70;73.00
69895;DHT22;57172;52.034;5.090;2023-08-24T03:15:54;18.70;73.20
69895;DHT22;57172;52.034;5.090;2023-08-24T03:18:24;18.70;73.30
69895;DHT22;57172;52.034;5.090;2023-08-24T03:20:51;18.70;73.40
69895;DHT22;57172;52.034;5.090;2023-08-24T03:23:18;18.70;73.50
69895;DHT22;57172;52.034;5.090;2023-08-24T03:25:45;18.70;73.50
69895;DHT22;57172;52.034;5.090;2023-08-24T03:28:13;18.70;73.60
69895;DHT22;57172;52.034;5.090;2023-08-24T03:30:46;18.70;73.60
69895;DHT22;57172;52.034;5.090;2023-08-24T03:33:13;18.60;73.80
69895;DHT22;57172;52.034;5.090;2023-08-24T03:35:40;18.60;73.70
69895;DHT22;57172;52.034;5.090;2023-08-24T03:38:07;18.60;73.80
69895;DHT22;57172;52.034;5.090;2023-08-24T03:40:34;18.60;73.80
69895;DHT22;57172;52.034;5.090;2023-08-24T03:43:02;18.60;73.80
69895;DHT22;57172;52.034;5.090;2023-08-24T03:45:29;18.60;73.80
69895;DHT22;57172;52.034;5.090;2023-08-24T03:47:57;18.60;73.90
69895;DHT22;57172;52.034;5.090;2023-08-24T03:50:25;18.60;74.00
69895;DHT22;57172;52.034;5.090;2023-08-24T03:52:53;18.50;74.10
69895;DHT22;57172;52.034;5.090;2023-08-24T03:55:21;18.50;74.20
69895;DHT22;57172;52.034;5.090;2023-08-24T03:57:48;18.50;74.40
69895;DHT22;57172;52.034;5.090;2023-08-24T04:00:16;18.50;74.60
69895;DHT22;57172;52.034;5.090;2023-08-24T04:02:44;18.40;74.60
69895;DHT22;57172;52.034;5.090;2023-08-24T04:05:19;18.50;74.70
69895;DHT22;57172;52.034;5.090;2023-08-24T04:07:47;18.40;74.70
69895;DHT22;57172;52.034;5.090;2023-08-24T04:10:17;18.40;74.70
69895;DHT22;57172;52.034;5.090;2023-08-24T04:12:44;18.40;74.70
69895;DHT22;57172;52.034;5.090;2023-08-24T04:15:11;18.40;74.90
69895;DHT22;57172;52.034;5.090;2023-08-24T04:17:38;18.30;75.00
69895;DHT22;57172;52.034;5.090;2023-08-24T04:20:09;18.30;75.00
69895;DHT22;57172;52.034;5.090;2023-08-24T04:22:36;18.30;75.10
69895;DHT22;57172;52.034;5.090;2023-08-24T04:25:03;18.30;75.10
69895;DHT22;57172;52.034;5.090;2023-08-24T04:27:31;18.30;75.20
69895;DHT22;57172;52.034;5.090;2023-08-24T04:29:58;18.30;75.30
69895;DHT22;57172;52.034;5.090;2023-08-24T04:32:25;18.20;75.40
69895;DHT22;57172;52.034;5.090;2023-08-24T04:34:52;18.20;75.40
69895;DHT22;57172;52.034;5.090;2023-08-24T04:37:19;18.20;75.50
69895;DHT22;57172;52.034;5.090;2023-08-24T04:39:46;18.20;75.50
69895;DHT22;57172;52.034;5.090;2023-08-24T04:42:13;18.30;75.60
69895;DHT22;57172;52.034;5.090;2023-08-24T04:44:40;18.20;75.60
69895;DHT22;57172;52.034;5.090;2023-08-24T04:47:08;18.20;75.60
69895;DHT22;57172;52.034;5.090;2023-08-24T04:49:36;18.20;75.70
69895;DHT22;57172;52.034;5.090;2023-08-24T04:52:03;18.20;75.80
69895;DHT22;57172;52.034;5.090;2023-08-24T04:54:32;18.20;75.90
69895;DHT22;57172;52.034;5.090;2023-08-24T04:56:59;18.20;76.00
69895;DHT22;57172;52.034;5.090;2023-08-24T04:59:26;18.20;76.00
69895;DHT22;57172;52.034;5.090;2023-08-24T05:01:53;18.20;76.10
69895;DHT22;57172;52.034;5.090;2023-08-24T05:04:20;18.20;76.20
69895;DHT22;57172;52.034;5.090;2023-08-24T05:06:47;18.20;76.20
69895;DHT22;57172;52.034;5.090;2023-08-24T05:09:14;18.20;76.40
69895;DHT22;57172;52.034;5.090;2023-08-24T05:11:41;18.20;76.60
69895;DHT22;57172;52.034;5.090;2023-08-24T05:14:08;18.20;76.60
69895;DHT22;57172;52.034;5.090;2023-08-24T05:16:35;18.30;76.70
69895;DHT22;57172;52.034;5.090;2023-08-24T05:19:02;18.30;76.80
69895;DHT22;57172;52.034;5.090;2023-08-24T05:21:30;18.30;76.90
69895;DHT22;57172;52.034;5.090;2023-08-24T05:23:57;18.30;77.00
69895;DHT22;57172;52.034;5.090;2023-08-24T05:26:23;18.30;77.00
69895;DHT22;57172;52.034;5.090;2023-08-24T05:28:53;18.40;77.00
69895;DHT22;57172;52.034;5.090;2023-08-24T05:31:19;18.40;77.10
69895;DHT22;57172;52.034;5.090;2023-08-24T05:33:47;18.40;77.10
69895;DHT22;57172;52.034;5.090;2023-08-24T05:36:14;18.50;77.20
69895;DHT22;57172;52.034;5.090;2023-08-24T05:38:41;18.50;77.20
69895;DHT22;57172;52.034;5.090;2023-08-24T05:41:16;18.60;77.30
69895;DHT22;57172;52.034;5.090;2023-08-24T05:43:43;18.60;77.30
69895;DHT22;57172;52.034;5.090;2023-08-24T05:46:10;18.60;77.40
69895;DHT22;57172;52.034;5.090;2023-08-24T05:48:37;18.70;77.30
69895;DHT22;57172;52.034;5.090;2023-08-24T05:51:04;18.80;77.30
69895;DHT22;57172;52.034;5.090;2023-08-24T05:53:33;18.80;77.30
69895;DHT22;57172;52.034;5.090;2023-08-24T05:56:00;18.90;77.40
69895;DHT22;57172;52.034;5.090;2023-08-24T05:58:27;19.00;77.50
69895;DHT22;57172;52.034;5.090;2023-08-24T06:00:59;19.00;77.50
69895;DHT22;57172;52.034;5.090;2023-08-24T06:03:27;19.10;77.50
69895;DHT22;57172;52.034;5.090;2023-08-24T06:06:00;19.20;77.40
69895;DHT22;57172;52.034;5.090;2023-08-24T06:08:27;19.30;77.40
69895;DHT22;57172;52.034;5.090;2023-08-24T06:10:53;19.30;77.30
69895;DHT22;57172;52.034;5.090;2023-08-24T06:13:20;19.40;77.20
69895;DHT22;57172;52.034;5.090;2023-08-24T06:15:47;19.50;77.20
69895;DHT22;57172;52.034;5.090;2023-08-24T06:18:14;19.60;77.10
69895;DHT22;57172;52.034;5.090;2023-08-24T06:20:42;19.60;77.00
69895;DHT22;57172;52.034;5.090;2023-08-24T06:23:09;19.70;77.00
69895;DHT22;57172;52.034;5.090;2023-08-24T06:25:36;19.80;76.90
69895;DHT22;57172;52.034;5.090;2023-08-24T06:28:03;19.80;76.90
69895;DHT22;57172;52.034;5.090;2023-08-24T06:30:31;19.90;76.80
69895;DHT22;57172;52.034;5.090;2023-08-24T06:33:04;20.00;76.80
69895;DHT22;57172;52.034;5.090;2023-08-24T06:35:32;20.00;76.70
69895;DHT22;57172;52.034;5.090;2023-08-24T06:37:59;20.10;76.50
69895;DHT22;57172;52.034;5.090;2023-08-24T06:40:25;20.20;76.30
69895;DHT22;57172;52.034;5.090;2023-08-24T06:42:52;20.30;76.10
69895;DHT22;57172;52.034;5.090;2023-08-24T06:45:19;20.30;76.10
69895;DHT22;57172;52.034;5.090;2023-08-24T06:47:46;20.40;75.90
69895;DHT22;57172;52.034;5.090;2023-08-24T06:50:14;20.50;75.90
69895;DHT22;57172;52.034;5.090;2023-08-24T06:52:42;20.60;75.70
69895;DHT22;57172;52.034;5.090;2023-08-24T06:55:09;20.70;75.50
69895;DHT22;57172;52.034;5.090;2023-08-24T06:57:37;20.80;75.40
69895;DHT22;57172;52.034;5.090;2023-08-24T07:00:04;20.90;75.20
69895;DHT22;57172;52.034;5.090;2023-08-24T07:02:36;21.00;74.90
69895;DHT22;57172;52.034;5.090;2023-08-24T07:05:03;21.10;74.80
69895;DHT22;57172;52.034;5.090;2023-08-24T07:07:35;21.20;74.40
69895;DHT22;57172;52.034;5.090;2023-08-24T07:10:02;21.20;74.30
69895;DHT22;57172;52.034;5.090;2023-08-24T07:12:30;21.30;74.30
69895;DHT22;57172;52.034;5.090;2023-08-24T07:14:57;21.40;74.20
69895;DHT22;57172;52.034;5.090;2023-08-24T07:17:24;21.50;74.20
69895;DHT22;57172;52.034;5.090;2023-08-24T07:19:51;21.60;73.80
69895;DHT22;57172;52.034;5.090;2023-08-24T07:22:19;21.80;73.60
69895;DHT22;57172;52.034;5.090;2023-08-24T07:24:46;21.90;73.10
69895;DHT22;57172;52.034;5.090;2023-08-24T07:27:14;22.00;72.90
69895;DHT22;57172;52.034;5.090;2023-08-24T07:29:41;22.10;72.60
69895;DHT22;57172;52.034;5.090;2023-08-24T07:32:07;22.20;72.40
69895;DHT22;57172;52.034;5.090;2023-08-24T07:34:35;22.40;72.00
69895;DHT22;57172;52.034;5.090;2023-08-24T07:37:02;22.50;71.80
69895;DHT22;57172;52.034;5.090;2023-08-24T07:39:29;22.60;71.60
69895;DHT22;57172;52.034;5.090;2023-08-24T07:41:56;22.70;71.30
69895;DHT22;57172;52.034;5.090;2023-08-24T07:44:23;22.90;71.00
69895;DHT22;57172;52.034;5.090;2023-08-24T07:46:50;23.00;70.70
69895;DHT22;57172;52.034;5.090;2023-08-24T07:49:17;23.10;70.80
69895;DHT22;57172;52.034;5.090;2023-08-24T07:51:44;23.30;70.60
69895;DHT22;57172;52.034;5.090;2023-08-24T07:54:11;23.50;70.30
69895;DHT22;57172;52.034;5.090;2023-08-24T07:56:38;23.70;70.10
69895;DHT22;57172;52.034;5.090;2023-08-24T07:59:04;24.00;69.90
69895;DHT22;57172;52.034;5.090;2023-08-24T08:01:32;24.20;69.20
69895;DHT22;57172;52.034;5.090;2023-08-24T08:03:59;24.50;69.20
69895;DHT22;57172;52.034;5.090;2023-08-24T08:06:27;24.90;68.80
69895;DHT22;57172;52.034;5.090;2023-08-24T08:08:54;25.20;68.20
69895;DHT22;57172;52.034;5.090;2023-08-24T08:11:21;25.60;67.90
69895;DHT22;57172;52.034;5.090;2023-08-24T08:13:48;25.90;67.00
69895;DHT22;57172;52.034;5.090;2023-08-24T08:16:15;26.20;65.50
69895;DHT22;57172;52.034;5.090;2023-08-24T08:18:42;26.40;64.40
69895;DHT22;57172;52.034;5.090;2023-08-24T08:21:15;26.50;63.60
69895;DHT22;57172;52.034;5.090;2023-08-24T08:23:48;26.70;62.40
69895;DHT22;57172;52.034;5.090;2023-08-24T08:26:16;26.80;62.70
69895;DHT22;57172;52.034;5.090;2023-08-24T08:28:43;27.10;62.20
69895;DHT22;57172;52.034;5.090;2023-08-24T08:31:11;27.20;61.30
69895;DHT22;57172;52.034;5.090;2023-08-24T08:33:38;27.40;60.30
69895;DHT22;57172;52.034;5.090;2023-08-24T08:36:05;27.40;59.50
69895;DHT22;57172;52.034;5.090;2023-08-24T08:38:32;27.50;59.40
69895;DHT22;57172;52.034;5.090;2023-08-24T08:41:03;27.60;59.10
69895;DHT22;57172;52.034;5.090;2023-08-24T08:43:30;27.60;58.50
69895;DHT22;57172;52.034;5.090;2023-08-24T08:45:58;27.50;58.60
69895;DHT22;57172;52.034;5.090;2023-08-24T08:48:28;27.50;58.60
69895;DHT22;57172;52.034;5.090;2023-08-24T08:50:58;27.60;58.40
69895;DHT22;57172;52.034;5.090;2023-08-24T08:53:25;27.70;57.90
69895;DHT22;57172;52.034;5.090;2023-08-24T08:55:53;27.80;58.00
69895;DHT22;57172;52.034;5.090;2023-08-24T08:58:20;27.90;57.90
69895;DHT22;57172;52.034;5.090;2023-08-24T09:00:48;28.00;57.40
69895;DHT22;57172;52.034;5.090;2023-08-24T09:03:18;28.10;57.10
69895;DHT22;57172;52.034;5.090;2023-08-24T09:05:46;28.20;56.80
69895;DHT22;57172;52.034;5.090;2023-08-24T09:08:16;28.30;56.60
69895;DHT22;57172;52.034;5.090;2023-08-24T09:10:44;28.40;56.10
69895;DHT22;57172;52.034;5.090;2023-08-24T09:13:11;28.50;56.30
69895;DHT22;57172;52.034;5.090;2023-08-24T09:15:38;28.70;56.70
69895;DHT22;57172;52.034;5.090;2023-08-24T09:18:06;29.00;55.90
69895;DHT22;57172;52.034;5.090;2023-08-24T09:20:33;29.20;55.90
69895;DHT22;57172;52.034;5.090;2023-08-24T09:23:01;29.60;55.80
69895;DHT22;57172;52.034;5.090;2023-08-24T09:25:28;30.00;54.70
69895;DHT22;57172;52.034;5.090;2023-08-24T09:28:03;30.30;53.80
69895;DHT22;57172;52.034;5.090;2023-08-24T09:30:35;30.60;52.70
69895;DHT22;57172;52.034;5.090;2023-08-24T09:33:04;30.90;52.70
69895;DHT22;57172;52.034;5.090;2023-08-24T09:35:34;31.20;51.60
69895;DHT22;57172;52.034;5.090;2023-08-24T09:38:21;31.40;50.90
69895;DHT22;57172;52.034;5.090;2023-08-24T09:40:53;31.50;50.10
69895;DHT22;57172;52.034;5.090;2023-08-24T09:43:22;31.40;49.70
69895;DHT22;57172;52.034;5.090;2023-08-24T09:45:55;31.30;49.80
69895;DHT22;57172;52.034;5.090;2023-08-24T09:48:23;31.10;49.60
69895;DHT22;57172;52.034;5.090;2023-08-24T09:50:56;31.00;49.70
69895;DHT22;57172;52.034;5.090;2023-08-24T09:53:24;30.70;49.80
69895;DHT22;57172;52.034;5.090;2023-08-24T09:55:59;30.40;49.80
69895;DHT22;57172;52.034;5.090;2023-08-24T09:58:27;30.00;50.20
69895;DHT22;57172;52.034;5.090;2023-08-24T10:00:55;29.70;50.60
69895;DHT22;57172;52.034;5.090;2023-08-24T10:03:25;29.50;51.00
69895;DHT22;57172;52.034;5.090;2023-08-24T10:05:55;29.20;51.20
69895;DHT22;57172;52.034;5.090;2023-08-24T10:08:44;28.90;51.70
69895;DHT22;57172;52.034;5.090;2023-08-24T10:11:19;28.60;52.20
69895;DHT22;57172;52.034;5.090;2023-08-24T10:14:10;28.30;52.90
69895;DHT22;57172;52.034;5.090;2023-08-24T10:16:39;28.00;53.80
69895;DHT22;57172;52.034;5.090;2023-08-24T10:19:08;27.70;54.30
69895;DHT22;57172;52.034;5.090;2023-08-24T10:21:37;27.50;55.30
69895;DHT22;57172;52.034;5.090;2023-08-24T10:24:04;27.20;55.50
69895;DHT22;57172;52.034;5.090;2023-08-24T10:26:32;27.00;56.00
69895;DHT22;57172;52.034;5.090;2023-08-24T10:29:02;26.80;56.70
69895;DHT22;57172;52.034;5.090;2023-08-24T10:31:30;26.60;57.00
69895;DHT22;57172;52.034;5.090;2023-08-24T10:33:58;26.50;57.60
69895;DHT22;57172;52.034;5.090;2023-08-24T10:36:25;26.40;58.50
69895;DHT22;57172;52.034;5.090;2023-08-24T10:38:55;26.30;59.60
69895;DHT22;57172;52.034;5.090;2023-08-24T10:41:27;26.30;60.40
69895;DHT22;57172;52.034;5.090;2023-08-24T10:44:05;26.30;60.90
69895;DHT22;57172;52.034;5.090;2023-08-24T10:46:37;26.40;61.60
69895;DHT22;57172;52.034;5.090;2023-08-24T10:49:04;26.50;61.80
69895;DHT22;57172;52.034;5.090;2023-08-24T10:51:31;26.60;62.10
69895;DHT22;57172;52.034;5.090;2023-08-24T10:54:00;26.70;62.10
69895;DHT22;57172;52.034;5.090;2023-08-24T10:59:16;26.80;61.70
69895;DHT22;57172;52.034;5.090;2023-08-24T11:02:04;26.80;61.90
69895;DHT22;57172;52.034;5.090;2023-08-24T11:04:33;26.90;61.70
69895;DHT22;57172;52.034;5.090;2023-08-24T11:07:00;26.90;61.80
69895;DHT22;57172;52.034;5.090;2023-08-24T11:09:46;26.90;62.00
69895;DHT22;57172;52.034;5.090;2023-08-24T11:12:14;27.00;61.70
69895;DHT22;57172;52.034;5.090;2023-08-24T11:14:51;27.00;61.80
69895;DHT22;57172;52.034;5.090;2023-08-24T11:17:21;27.10;62.00
69895;DHT22;57172;52.034;5.090;2023-08-24T11:19:51;27.30;61.90
69895;DHT22;57172;52.034;5.090;2023-08-24T11:22:18;27.30;61.30
69895;DHT22;57172;52.034;5.090;2023-08-24T11:24:45;27.30;60.80
69895;DHT22;57172;52.034;5.090;2023-08-24T11:27:12;27.30;60.70
69895;DHT22;57172;52.034;5.090;2023-08-24T11:29:39;27.30;60.50
69895;DHT22;57172;52.034;5.090;2023-08-24T11:32:06;27.40;60.80
69895;DHT22;57172;52.034;5.090;2023-08-24T11:34:36;27.50;60.60
69895;DHT22;57172;52.034;5.090;2023-08-24T11:37:04;27.60;60.30
69895;DHT22;57172;52.034;5.090;2023-08-24T11:39:31;27.70;60.50
69895;DHT22;57172;52.034;5.090;2023-08-24T11:42:04;27.80;60.30
69895;DHT22;57172;52.034;5.090;2023-08-24T11:44:49;28.00;59.80
69895;DHT22;57172;52.034;5.090;2023-08-24T11:47:16;28.10;59.60
69895;DHT22;57172;52.034;5.090;2023-08-24T11:49:46;28.30;59.10
69895;DHT22;57172;52.034;5.090;2023-08-24T11:52:13;28.40;59.30
69895;DHT22;57172;52.034;5.090;2023-08-24T11:54:43;28.60;58.10
69895;DHT22;57172;52.034;5.090;2023-08-24T11:57:10;28.60;57.40
69895;DHT22;57172;52.034;5.090;2023-08-24T11:59:39;28.70;57.40
69895;DHT22;57172;52.034;5.090;2023-08-24T12:02:06;28.80;57.30
69895;DHT22;57172;52.034;5.090;2023-08-24T12:04:42;29.00;57.40
69895;DHT22;57172;52.034;5.090;2023-08-24T12:07:11;29.20;56.70
69895;DHT22;57172;52.034;5.090;2023-08-24T12:09:42;29.40;56.50
69895;DHT22;57172;52.034;5.090;2023-08-24T12:12:16;29.60;55.50
69895;DHT22;57172;52.034;5.090;2023-08-24T12:14:44;29.80;54.60
69895;DHT22;57172;52.034;5.090;2023-08-24T12:17:12;29.80;54.60
69895;DHT22;57172;52.034;5.090;2023-08-24T12:19:43;29.80;54.40
69895;DHT22;57172;52.034;5.090;2023-08-24T12:22:19;29.90;53.70
69895;DHT22;57172;52.034;5.090;2023-08-24T12:24:46;29.80;53.80
69895;DHT22;57172;52.034;5.090;2023-08-24T12:27:20;29.70;54.10
69895;DHT22;57172;52.034;5.090;2023-08-24T12:29:47;29.60;54.50
69895;DHT22;57172;52.034;5.090;2023-08-24T12:32:15;29.50;54.50
69895;DHT22;57172;52.034;5.090;2023-08-24T12:34:42;29.50;54.70
69895;DHT22;57172;52.034;5.090;2023-08-24T12:37:09;29.50;54.70
69895;DHT22;57172;52.034;5.090;2023-08-24T12:39:37;29.50;54.90
69895;DHT22;57172;52.034;5.090;2023-08-24T12:42:04;29.60;55.10
69895;DHT22;57172;52.034;5.090;2023-08-24T12:44:31;29.90;55.60
69895;DHT22;57172;52.034;5.090;2023-08-24T12:47:02;30.40;55.50
69895;DHT22;57172;52.034;5.090;2023-08-24T12:49:29;31.20;54.50
69895;DHT22;57172;52.034;5.090;2023-08-24T12:51:56;31.90;53.20
69895;DHT22;57172;52.034;5.090;2023-08-24T12:54:23;32.50;51.60
69895;DHT22;57172;52.034;5.090;2023-08-24T12:56:51;32.70;49.90
69895;DHT22;57172;52.034;5.090;2023-08-24T12:59:19;32.70;49.30
69895;DHT22;57172;52.034;5.090;2023-08-24T13:01:46;32.60;49.00
69895;DHT22;57172;52.034;5.090;2023-08-24T13:04:13;32.60;48.90
69895;DHT22;57172;52.034;5.090;2023-08-24T13:06:40;32.50;49.10
69895;DHT22;57172;52.034;5.090;2023-08-24T13:09:07;32.60;49.10
69895;DHT22;57172;52.034;5.090;2023-08-24T13:11:35;32.60;48.40
69895;DHT22;57172;52.034;5.090;2023-08-24T13:14:02;32.40;48.20
69895;DHT22;57172;52.034;5.090;2023-08-24T13:16:29;32.10;47.90
69895;DHT22;57172;52.034;5.090;2023-08-24T13:18:56;31.90;48.10
69895;DHT22;57172;52.034;5.090;2023-08-24T13:21:24;31.50;47.90
69895;DHT22;57172;52.034;5.090;2023-08-24T13:23:51;31.10;48.60
69895;DHT22;57172;52.034;5.090;2023-08-24T13:26:20;30.90;49.20
69895;DHT22;57172;52.034;5.090;2023-08-24T13:28:47;30.80;49.70
69895;DHT22;57172;52.034;5.090;2023-08-24T13:31:14;30.80;50.10
69895;DHT22;57172;52.034;5.090;2023-08-24T13:33:42;30.90;49.80
69895;DHT22;57172;52.034;5.090;2023-08-24T13:36:08;30.90;49.80
69895;DHT22;57172;52.034;5.090;2023-08-24T13:38:35;30.90;49.50
69895;DHT22;57172;52.034;5.090;2023-08-24T13:41:02;30.80;50.00
69895;DHT22;57172;52.034;5.090;2023-08-24T13:43:31;30.90;50.70
69895;DHT22;57172;52.034;5.090;2023-08-24T13:45:58;31.10;50.20
69895;DHT22;57172;52.034;5.090;2023-08-24T13:48:29;31.00;49.50
69895;DHT22;57172;52.034;5.090;2023-08-24T13:51:00;30.80;49.40
69895;DHT22;57172;52.034;5.090;2023-08-24T13:53:27;30.50;50.00
69895;DHT22;57172;52.034;5.090;2023-08-24T13:55:58;30.20;50.50
69895;DHT22;57172;52.034;5.090;2023-08-24T13:58:30;29.80;51.10
69895;DHT22;57172;52.034;5.090;2023-08-24T14:00:58;29.40;51.70
69895;DHT22;57172;52.034;5.090;2023-08-24T14:03:25;29.10;52.30
69895;DHT22;57172;52.034;5.090;2023-08-24T14:05:55;28.90;52.90
69895;DHT22;57172;52.034;5.090;2023-08-24T14:08:23;28.80;53.20
69895;DHT22;57172;52.034;5.090;2023-08-24T14:10:52;28.60;53.60
69895;DHT22;57172;52.034;5.090;2023-08-24T14:13:19;28.30;54.20
69895;DHT22;57172;52.034;5.090;2023-08-24T14:15:48;28.10;54.80
69895;DHT22;57172;52.034;5.090;2023-08-24T14:18:16;28.10;55.30
69895;DHT22;57172;52.034;5.090;2023-08-24T14:20:43;28.00;55.60
69895;DHT22;57172;52.034;5.090;2023-08-24T14:23:10;27.90;55.90
69895;DHT22;57172;52.034;5.090;2023-08-24T14:25:37;27.90;56.00
69895;DHT22;57172;52.034;5.090;2023-08-24T14:28:04;27.90;56.10
69895;DHT22;57172;52.034;5.090;2023-08-24T14:30:35;27.80;56.30
69895;DHT22;57172;52.034;5.090;2023-08-24T14:33:02;27.70;56.70
69895;DHT22;57172;52.034;5.090;2023-08-24T14:35:29;27.70;57.00
69895;DHT22;57172;52.034;5.090;2023-08-24T14:37:58;27.70;57.30
69895;DHT22;57172;52.034;5.090;2023-08-24T14:40:25;27.60;57.50
69895;DHT22;57172;52.034;5.090;2023-08-24T14:42:52;27.60;57.70
69895;DHT22;57172;52.034;5.090;2023-08-24T14:45:20;27.50;57.80
69895;DHT22;57172;52.034;5.090;2023-08-24T14:47:47;27.50;58.00
69895;DHT22;57172;52.034;5.090;2023-08-24T14:50:14;27.50;57.90
69895;DHT22;57172;52.034;5.090;2023-08-24T14:52:41;27.50;58.10
69895;DHT22;57172;52.034;5.090;2023-08-24T14:55:08;27.40;58.10
69895;DHT22;57172;52.034;5.090;2023-08-24T14:57:36;27.30;58.40
69895;DHT22;57172;52.034;5.090;2023-08-24T15:00:03;27.40;58.60
69895;DHT22;57172;52.034;5.090;2023-08-24T15:02:32;27.30;58.60
69895;DHT22;57172;52.034;5.090;2023-08-24T15:04:59;27.20;58.90
69895;DHT22;57172;52.034;5.090;2023-08-24T15:07:27;27.20;59.10
69895;DHT22;57172;52.034;5.090;2023-08-24T15:09:54;27.20;59.30
69895;DHT22;57172;52.034;5.090;2023-08-24T15:12:21;27.30;59.30
69895;DHT22;57172;52.034;5.090;2023-08-24T15:14:59;27.30;59.30
69895;DHT22;57172;52.034;5.090;2023-08-24T15:17:30;27.30;59.20
69895;DHT22;57172;52.034;5.090;2023-08-24T15:19:57;27.30;59.20
69895;DHT22;57172;52.034;5.090;2023-08-24T15:22:24;27.30;59.40
69895;DHT22;57172;52.034;5.090;2023-08-24T15:24:55;27.40;59.30
69895;DHT22;57172;52.034;5.090;2023-08-24T15:27:22;27.40;59.50
69895;DHT22;57172;52.034;5.090;2023-08-24T15:29:49;27.60;59.50
69895;DHT22;57172;52.034;5.090;2023-08-24T15:32:18;27.80;59.30
69895;DHT22;57172;52.034;5.090;2023-08-24T15:34:46;28.00;58.40
69895;DHT22;57172;52.034;5.090;2023-08-24T15:37:13;28.20;58.40
69895;DHT22;57172;52.034;5.090;2023-08-24T15:39:40;28.40;58.10
69895;DHT22;57172;52.034;5.090;2023-08-24T15:42:07;28.50;57.50
69895;DHT22;57172;52.034;5.090;2023-08-24T15:44:34;28.60;56.90
69895;DHT22;57172;52.034;5.090;2023-08-24T15:47:02;28.50;56.30